SBRJSBSC

Guest
Details From SBRJ - Santos-dumont
To SBSC - Santa Cruz
Flight Number -
Tags Real
Created
Modified
Stats Distance 31 nm / 58 km
Max Altitude 0 ft / 0 m
Waypoints 2
Social Downloads 5
Likes 0
Share VATSIM

Download

Looking for another format? Having issues loading an existing format? Contact us
Advertisement - Login to hide

Notes

None

Route

SBRJ SBSC

ID Type Via Altitude Latitude Longitude Leg Dist Tot Dist Heading (true) Name
O SBRJ APT - 0 ft / 0 m -22.91603˚ -43.16328˚ - 0 nm - -
O SBSC APT - 0 ft / 0 m -22.94379˚ -43.72459˚ 31 nm 31 nm 267° / 267° -

Altitude Profile

Advertisement - Login to hide

SBRJ

Details ICAO SBRJ (SDU)
Name Santos-Dumont
Region Brazil
Timezone Unknown (UTC+0.0)
Stats Elevation 11 ft / 3 m (AMSL)
Location -22.910460° -43.163133°
Runways 2
Magnetic Variation 22.825° W

METAR

SBRJ 241800Z 19010KT 9999 FEW025 25/18 Q1021

Decode

TAF

TAF SBRJ 240800Z 2412/2424 35005KT 9999 SCT020 BKN040 TX26/2416Z TN20/2424Z BECMG 2414/2416 15010KT 7000 SCT017 RMK PGU

Decode

Departure Runways

ID Width Length Bearing (true) Bearing (mag) Surface Threshold Offset Overrun Length
02L 98 ft / 30 m 4,154 ft / 1,266 m 358.02° 20.85° Asphalt 0 ft / 0 m 80 ft / 24 m
02R 138 ft / 42 m 4,361 ft / 1,329 m 358.01° 20.84° Asphalt 0 ft / 0 m 80 ft / 24 m
20L 138 ft / 42 m 4,361 ft / 1,329 m 178.01° 200.84° Asphalt 0 ft / 0 m 80 ft / 24 m
20R 98 ft / 30 m 4,154 ft / 1,266 m 178.02° 200.85° Asphalt 0 ft / 0 m 95 ft / 29 m

SBSC

Details ICAO SBSC (STU)
Name SANTA CRUZ
Region Brazil
Timezone America/Sao_Paulo (UTC-3.0)
Stats Elevation 10 ft / 3 m (AMSL)
Location -22.932489° -43.719090°
Runways 1
Magnetic Variation 22.631° W

METAR

SBSC 241800Z 18010KT 9999 FEW020 24/18 Q1021

Decode

TAF

TAF SBSC 240945Z 2412/2424 24005KT 8000 FEW015 TN20/2412Z TX25/2417Z BECMG 2412/2414 35005KT SCT017 BECMG 2414/2416 12010KT 9999 NSW SCT020 RMK PEB

Decode

Destination Runways

ID Width Length Bearing (true) Bearing (mag) Surface Threshold Offset Overrun Length
05 148 ft / 45 m 9,039 ft / 2,755 m 24.13° 46.76° Asphalt 0 ft / 0 m 1,145 ft / 349 m
23 148 ft / 45 m 9,039 ft / 2,755 m 204.12° 226.75° Asphalt 0 ft / 0 m 1,145 ft / 349 m

Popular Alternatives